X  LukMetar Aviation Weather Data     EKVJ Stauning

Temperatur

10°C Temperatur

10°C Dugpunkt

100% Luftfugtighed



Vind

 3 KM/H

 2 MPH

 1 M/S

 2 KTS



50°
NEdir
Current Conditions

Let Regn Light Drizzle Let Regn Light Drizzle
Lufttryk 1017.92 (hPa) - 30.06 (in)
Visibility 4.3 (mi) - 7 (km)
Lufthavn
Airport-code EKVJ

Lokation Stauning 14 (km)

Metar:
EKVJ 211350Z 05002KT 7000 -RADZ FEW008 SCT050 BKN100 10/10 Q1018

Time: 10-21-2019 15:50